createdAt,value
2017-08-13T00:01:02.029Z,1017.3
2017-08-13T00:03:00.087Z,1017.3
2017-08-13T00:03:59.682Z,1017.2
2017-08-13T00:04:58.871Z,1017.2
2017-08-13T00:05:57.956Z,1017.3
2017-08-13T00:06:57.137Z,1017.3
2017-08-13T00:07:56.717Z,1017.3
2017-08-13T00:08:27.228Z,1017.3
2017-08-13T00:08:57.716Z,1017.3
2017-08-13T00:09:28.217Z,1017.3
2017-08-13T00:09:58.715Z,1017.3
2017-08-13T00:10:29.246Z,1017.3
2017-08-13T00:11:53.468Z,1017.4
2017-08-13T00:12:52.661Z,1017.3
2017-08-13T00:13:51.838Z,1017.4
2017-08-13T00:14:51.022Z,1017.4
2017-08-13T00:15:50.222Z,1017.3
2017-08-13T00:16:49.915Z,1017.3
2017-08-13T00:17:49.095Z,1017.3
2017-08-13T00:18:48.280Z,1017.3
2017-08-13T00:19:47.465Z,1017.2
2017-08-13T00:20:46.913Z,1017.2
2017-08-13T00:21:46.003Z,1017.2
2017-08-13T00:22:45.081Z,1017.2
2017-08-13T00:23:44.521Z,1017.2
2017-08-13T00:24:43.586Z,1017.2
2017-08-13T00:25:42.665Z,1017.2
2017-08-13T00:26:42.365Z,1017.2
2017-08-13T00:27:12.754Z,1017.2
2017-08-13T00:28:40.629Z,1017.2
2017-08-13T00:29:39.827Z,1017.2
2017-08-13T00:30:39.019Z,1017.3
2017-08-13T00:31:38.584Z,1017.3
2017-08-13T00:32:37.536Z,1017.4
2017-08-13T00:33:36.737Z,1017.3
2017-08-13T00:34:35.918Z,1017.3
2017-08-13T00:35:35.103Z,1017.3
2017-08-13T00:36:34.670Z,1017.3
2017-08-13T00:37:33.853Z,1017.3
2017-08-13T00:38:33.042Z,1017.3
2017-08-13T00:39:32.225Z,1017.3
2017-08-13T00:40:31.288Z,1017.3
2017-08-13T00:41:30.974Z,1017.3
2017-08-13T00:42:30.040Z,1017.3
2017-08-13T00:43:29.216Z,1017.3
2017-08-13T00:44:28.301Z,1017.4
2017-08-13T00:45:27.499Z,1017.3
2017-08-13T00:46:27.190Z,1017.4
2017-08-13T00:47:26.430Z,1017.4
2017-08-13T00:48:25.615Z,1017.4
2017-08-13T00:48:56.106Z,1017.4
2017-08-13T00:49:26.499Z,1017.4
2017-08-13T00:49:56.994Z,1017.4
2017-08-13T00:50:27.494Z,1017.4
2017-08-13T00:50:57.988Z,1017.4
2017-08-13T00:52:22.226Z,1017.4
2017-08-13T00:53:21.813Z,1017.3
2017-08-13T00:54:21.011Z,1017.4
2017-08-13T00:55:20.197Z,1017.4
2017-08-13T00:56:19.384Z,1017.4
2017-08-13T00:57:18.585Z,1017.4
2017-08-13T00:58:17.682Z,1017.5
2017-08-13T00:59:17.020Z,1017.4
2017-08-13T01:00:16.485Z,1017.4
2017-08-13T01:01:15.668Z,1017.4
2017-08-13T01:01:45.945Z,1017.4
2017-08-13T01:02:16.327Z,1017.4
2017-08-13T01:03:14.000Z,1017.3
2017-08-13T01:04:13.185Z,1017.3
2017-08-13T01:05:12.768Z,1017.3
2017-08-13T01:06:11.829Z,1017.4
2017-08-13T01:07:10.892Z,1017.4
2017-08-13T01:10:08.742Z,1017.3
2017-08-13T01:11:07.978Z,1017.3
2017-08-13T01:12:07.052Z,1017.2
2017-08-13T01:13:06.621Z,1017.1
2017-08-13T01:14:05.802Z,1017.2
2017-08-13T01:15:05.034Z,1017.1
2017-08-13T01:16:04.119Z,1017.1
2017-08-13T01:17:03.579Z,1017.2
2017-08-13T01:18:02.751Z,1017.2
2017-08-13T01:19:01.700Z,1017.3
2017-08-13T01:20:00.895Z,1017.3
2017-08-13T01:20:31.293Z,1017.3
2017-08-13T01:21:59.671Z,1017.3
2017-08-13T01:22:58.862Z,1017.3
2017-08-13T01:23:58.060Z,1017.4
2017-08-13T01:24:57.531Z,1017.3
2017-08-13T01:25:56.604Z,1017.3
2017-08-13T01:26:55.785Z,1017.3
2017-08-13T01:27:54.965Z,1017.3
2017-08-13T01:28:54.163Z,1017.3
2017-08-13T01:29:53.366Z,1017.3
2017-08-13T01:30:52.948Z,1017.3
2017-08-13T01:31:52.005Z,1017.3
2017-08-13T01:32:51.065Z,1017.3
2017-08-13T01:33:50.246Z,1017.3
2017-08-13T01:34:49.826Z,1017.3
2017-08-13T01:35:49.008Z,1017.2
2017-08-13T01:36:19.503Z,1017.2
2017-08-13T01:36:49.888Z,1017.2
2017-08-13T01:37:47.567Z,1017.3
2017-08-13T01:38:46.760Z,1017.4
2017-08-13T01:39:45.829Z,1017.4
2017-08-13T01:40:44.899Z,1017.4
2017-08-13T01:41:44.476Z,1017.4
2017-08-13T01:42:43.672Z,1017.5
2017-08-13T01:43:42.863Z,1017.5
2017-08-13T01:44:41.936Z,1017.5
2017-08-13T01:45:41.124Z,1017.5
2017-08-13T01:46:40.310Z,1017.4
2017-08-13T01:47:40.011Z,1017.4
2017-08-13T01:48:38.976Z,1017.5
2017-08-13T01:49:38.162Z,1017.4
2017-08-13T01:50:37.360Z,1017.4
2017-08-13T01:51:36.542Z,1017.4
2017-08-13T01:52:35.729Z,1017.4
2017-08-13T01:53:35.419Z,1017.4
2017-08-13T01:54:34.374Z,1017.4
2017-08-13T01:55:33.548Z,1017.5
2017-08-13T01:56:32.738Z,1017.5
2017-08-13T01:57:03.243Z,1017.5
2017-08-13T01:57:33.675Z,1017.5
2017-08-13T01:58:04.059Z,1017.5
2017-08-13T01:58:34.438Z,1017.5
2017-08-13T01:59:04.954Z,1017.5
2017-08-13T01:59:35.449Z,1017.6
2017-08-13T02:00:29.591Z,1017.6
2017-08-13T02:01:29.186Z,1017.6
2017-08-13T02:02:28.367Z,1017.6
2017-08-13T02:03:27.549Z,1017.6
2017-08-13T02:04:26.745Z,1017.5
2017-08-13T02:05:26.088Z,1017.5
2017-08-13T02:06:25.271Z,1017.5
2017-08-13T02:07:24.350Z,1017.6
2017-08-13T02:08:23.685Z,1017.6
2017-08-13T02:09:23.136Z,1017.7
2017-08-13T02:10:22.089Z,1017.7
2017-08-13T02:11:21.282Z,1017.6
2017-08-13T02:12:20.851Z,1017.6
2017-08-13T02:13:19.924Z,1017.7
2017-08-13T02:14:19.003Z,1017.6
2017-08-13T02:15:18.189Z,1017.6
2017-08-13T02:15:48.592Z,1017.6
2017-08-13T02:17:16.977Z,1017.6
2017-08-13T02:18:15.813Z,1017.6
2017-08-13T02:19:15.390Z,1017.6
2017-08-13T02:20:14.489Z,1017.6
2017-08-13T02:21:13.684Z,1017.6
2017-08-13T02:22:12.741Z,1017.6
2017-08-13T02:23:11.964Z,1017.7
2017-08-13T02:24:11.538Z,1017.7
2017-08-13T02:25:10.608Z,1017.7
2017-08-13T02:26:09.682Z,1017.7
2017-08-13T02:27:09.133Z,1017.7
2017-08-13T02:28:08.319Z,1017.7
2017-08-13T02:29:07.515Z,1017.7
2017-08-13T02:29:38.010Z,1017.7
2017-08-13T02:31:05.877Z,1017.7
2017-08-13T02:32:05.457Z,1017.7
2017-08-13T02:33:04.650Z,1017.8
2017-08-13T02:34:03.602Z,1017.8
2017-08-13T02:35:03.172Z,1017.8
2017-08-13T02:36:02.249Z,1017.8
2017-08-13T02:37:01.450Z,1017.8
2017-08-13T02:37:31.833Z,1017.8
2017-08-13T02:38:59.701Z,1017.8
2017-08-13T02:39:59.384Z,1017.8
2017-08-13T02:40:58.452Z,1017.8
2017-08-13T02:41:57.657Z,1017.8
2017-08-13T02:42:56.839Z,1017.9
2017-08-13T02:43:56.029Z,1017.9
2017-08-13T02:44:55.225Z,1017.9
2017-08-13T02:45:54.407Z,1017.9
2017-08-13T02:46:53.600Z,1017.9
2017-08-13T02:47:52.810Z,1017.9
2017-08-13T02:48:52.489Z,1017.9
2017-08-13T02:49:51.675Z,1017.9
2017-08-13T02:50:50.626Z,1017.9
2017-08-13T02:51:49.835Z,1017.9
2017-08-13T02:52:49.028Z,1017.9
2017-08-13T02:53:48.213Z,1017.9
2017-08-13T02:54:47.914Z,1017.9
2017-08-13T02:55:46.985Z,1017.9
2017-08-13T02:56:45.930Z,1017.9
2017-08-13T02:57:45.505Z,1017.9
2017-08-13T02:58:44.691Z,1017.9
2017-08-13T02:59:43.759Z,1018
2017-08-13T03:00:42.963Z,1018
2017-08-13T03:01:42.160Z,1018
2017-08-13T03:02:41.346Z,1018
2017-08-13T03:03:40.528Z,1018.1
2017-08-13T03:04:40.214Z,1018.1
2017-08-13T03:05:39.160Z,1018.1
2017-08-13T03:06:38.346Z,1018
2017-08-13T03:07:37.522Z,1018.1
2017-08-13T03:08:07.906Z,1018.1
2017-08-13T03:08:38.158Z,1018
2017-08-13T03:09:08.594Z,1018
2017-08-13T03:09:38.859Z,1018
2017-08-13T03:10:09.344Z,1018
2017-08-13T03:10:39.841Z,1018
2017-08-13T03:11:34.496Z,1018
2017-08-13T03:12:33.689Z,1018
2017-08-13T03:13:33.380Z,1018
2017-08-13T03:14:32.569Z,1018.1
2017-08-13T03:15:31.385Z,1018
2017-08-13T03:16:31.077Z,1018
2017-08-13T03:17:30.258Z,1018
2017-08-13T03:18:29.448Z,1018
2017-08-13T03:19:28.629Z,1018
2017-08-13T03:20:27.809Z,1018
2017-08-13T03:21:26.872Z,1018
2017-08-13T03:22:26.060Z,1018
2017-08-13T03:24:24.519Z,1018.1
2017-08-13T03:25:24.087Z,1018.1
2017-08-13T03:26:23.271Z,1018.1
2017-08-13T03:27:22.469Z,1018.1
2017-08-13T03:28:21.537Z,1018.1
2017-08-13T03:29:20.726Z,1018.1
2017-08-13T03:30:20.402Z,1018.1
2017-08-13T03:31:19.369Z,1018.1
2017-08-13T03:32:18.466Z,1018.1
2017-08-13T03:33:18.037Z,1018.1
2017-08-13T03:34:17.222Z,1018.1
2017-08-13T03:35:16.393Z,1018.1
2017-08-13T03:36:15.574Z,1018.2
2017-08-13T03:37:14.638Z,1018.2
2017-08-13T03:38:14.205Z,1018.1
2017-08-13T03:39:13.277Z,1018.2
2017-08-13T03:40:12.476Z,1018.2
2017-08-13T03:41:12.058Z,1018.2
2017-08-13T03:42:11.231Z,1018.1
2017-08-13T03:43:10.407Z,1018.1
2017-08-13T03:44:09.602Z,1018.1
2017-08-13T03:45:08.786Z,1018.2
2017-08-13T03:45:39.295Z,1018.2
2017-08-13T03:46:09.780Z,1018.2
2017-08-13T03:47:07.338Z,1018.2
2017-08-13T03:48:06.524Z,1018.2
2017-08-13T03:49:05.589Z,1018.2
2017-08-13T03:50:04.791Z,1018.2
2017-08-13T03:51:04.363Z,1018.2
2017-08-13T03:52:03.421Z,1018.2
2017-08-13T03:53:02.865Z,1018.2
2017-08-13T03:54:02.056Z,1018.1
2017-08-13T03:55:01.392Z,1018.2
2017-08-13T03:56:00.338Z,1018.1
2017-08-13T03:56:59.519Z,1018.2
2017-08-13T03:57:59.088Z,1018.2
2017-08-13T03:58:58.261Z,1018.2
2017-08-13T03:59:57.437Z,1018.2
2017-08-13T04:00:56.625Z,1018.2
2017-08-13T04:01:55.681Z,1018.2
2017-08-13T04:02:54.864Z,1018.2
2017-08-13T04:03:25.366Z,1018.2
2017-08-13T04:03:55.877Z,1018.2
2017-08-13T04:04:26.379Z,1018.2
2017-08-13T04:04:56.882Z,1018.2
2017-08-13T04:05:27.375Z,1018.2
2017-08-13T04:06:52.227Z,1018.2
2017-08-13T04:07:51.412Z,1018.2
2017-08-13T04:08:50.601Z,1018.1
2017-08-13T04:09:49.675Z,1018.2
2017-08-13T04:10:48.860Z,1018.2
2017-08-13T04:11:48.040Z,1018.2
2017-08-13T04:12:47.719Z,1018.2
2017-08-13T04:13:46.897Z,1018.2
2017-08-13T04:14:45.978Z,1018.2
2017-08-13T04:15:16.368Z,1018.2
2017-08-13T04:15:46.742Z,1018.2
2017-08-13T04:16:17.359Z,1018.2
2017-08-13T04:16:47.619Z,1018.2
2017-08-13T04:17:18.118Z,1018.2
2017-08-13T04:18:42.742Z,1018.2
2017-08-13T04:19:41.937Z,1018.2
2017-08-13T04:20:41.496Z,1018.2
2017-08-13T04:21:40.569Z,1018.2
2017-08-13T04:22:39.756Z,1018.2
2017-08-13T04:23:38.935Z,1018.2
2017-08-13T04:24:38.626Z,1018.2
2017-08-13T04:25:37.703Z,1018.2
2017-08-13T04:26:36.757Z,1018.1
2017-08-13T04:27:35.935Z,1018.2
2017-08-13T04:28:35.497Z,1018.2
2017-08-13T04:29:34.687Z,1018.2
2017-08-13T04:30:33.861Z,1018.3
2017-08-13T04:31:33.032Z,1018.3
2017-08-13T04:32:32.200Z,1018.3
2017-08-13T04:33:31.288Z,1018.3
2017-08-13T04:34:30.581Z,1018.3
2017-08-13T04:35:30.157Z,1018.3
2017-08-13T04:36:29.109Z,1018.4
2017-08-13T04:37:28.566Z,1018.4
2017-08-13T04:38:27.750Z,1018.3
2017-08-13T04:39:26.927Z,1018.4
2017-08-13T04:40:26.111Z,1018.4
2017-08-13T04:41:25.328Z,1018.4
2017-08-13T04:42:24.502Z,1018.4
2017-08-13T04:43:23.676Z,1018.4
2017-08-13T04:44:23.350Z,1018.4
2017-08-13T04:45:22.525Z,1018.5
2017-08-13T04:46:21.703Z,1018.4
2017-08-13T04:47:20.757Z,1018.4
2017-08-13T04:48:19.938Z,1018.5
2017-08-13T04:49:19.510Z,1018.4
2017-08-13T04:50:18.702Z,1018.4
2017-08-13T04:51:17.655Z,1018.4
2017-08-13T04:52:16.844Z,1018.4
2017-08-13T04:53:16.407Z,1018.3
2017-08-13T04:54:15.350Z,1018.4
2017-08-13T04:54:45.839Z,1018.4
2017-08-13T04:55:16.208Z,1018.3
2017-08-13T04:55:46.855Z,1018.3
2017-08-13T04:56:17.252Z,1018.4
2017-08-13T04:56:47.743Z,1018.4
2017-08-13T04:57:18.230Z,1018.4
2017-08-13T04:57:48.596Z,1018.4
2017-08-13T04:59:11.924Z,1018.4
2017-08-13T05:00:11.105Z,1018.4
2017-08-13T05:01:10.283Z,1018.5
2017-08-13T05:02:09.737Z,1018.5
2017-08-13T05:03:08.920Z,1018.5
2017-08-13T05:04:07.999Z,1018.5
2017-08-13T05:05:07.184Z,1018.4
2017-08-13T05:06:06.384Z,1018.4
2017-08-13T05:07:05.959Z,1018.4
2017-08-13T05:08:05.142Z,1018.4
2017-08-13T05:09:04.325Z,1018.4
2017-08-13T05:10:03.547Z,1018.4
2017-08-13T05:11:02.730Z,1018.4
2017-08-13T05:12:01.902Z,1018.4
2017-08-13T05:13:01.076Z,1018.4
2017-08-13T05:14:00.646Z,1018.4
2017-08-13T05:14:59.835Z,1018.4
2017-08-13T05:15:59.022Z,1018.5
2017-08-13T05:16:58.183Z,1018.5
2017-08-13T05:17:57.358Z,1018.5
2017-08-13T05:18:56.440Z,1018.4
2017-08-13T05:19:55.625Z,1018.4
2017-08-13T05:20:55.308Z,1018.4
2017-08-13T05:21:54.493Z,1018.5
2017-08-13T05:22:53.434Z,1018.5
2017-08-13T05:23:52.629Z,1018.5
2017-08-13T05:24:52.298Z,1018.4
2017-08-13T05:25:51.347Z,1018.5
2017-08-13T05:26:50.442Z,1018.5
2017-08-13T05:27:20.927Z,1018.5
2017-08-13T05:27:51.296Z,1018.5
2017-08-13T05:28:48.983Z,1018.6
2017-08-13T05:29:48.179Z,1018.5
2017-08-13T05:30:47.362Z,1018.6
2017-08-13T05:31:46.947Z,1018.6
2017-08-13T05:32:46.006Z,1018.5
2017-08-13T05:33:45.185Z,1018.6
2017-08-13T05:34:44.753Z,1018.6
2017-08-13T05:35:43.938Z,1018.6
2017-08-13T05:36:43.109Z,1018.6
2017-08-13T05:37:42.184Z,1018.7
2017-08-13T05:38:41.752Z,1018.7
2017-08-13T05:39:40.809Z,1018.6
2017-08-13T05:40:39.985Z,1018.6
2017-08-13T05:41:39.046Z,1018.7
2017-08-13T05:42:38.718Z,1018.7
2017-08-13T05:43:37.785Z,1018.7
2017-08-13T05:44:36.967Z,1018.7
2017-08-13T05:45:36.161Z,1018.7
2017-08-13T05:46:35.350Z,1018.7
2017-08-13T05:47:34.933Z,1018.8
2017-08-13T05:48:33.770Z,1018.8
2017-08-13T05:49:33.464Z,1018.8
2017-08-13T05:50:32.414Z,1018.8
2017-08-13T05:51:31.605Z,1018.8
2017-08-13T05:52:02.247Z,1018.8
2017-08-13T05:52:32.625Z,1018.8
2017-08-13T05:53:02.869Z,1018.8
2017-08-13T05:53:33.366Z,1018.8
2017-08-13T05:54:29.425Z,1018.7
2017-08-13T05:55:28.630Z,1018.7
2017-08-13T05:56:27.953Z,1018.8
2017-08-13T05:57:27.028Z,1018.8
2017-08-13T05:58:26.211Z,1018.8
2017-08-13T05:59:25.408Z,1018.8
2017-08-13T06:00:24.966Z,1018.8
2017-08-13T06:01:24.025Z,1018.7
2017-08-13T06:01:54.541Z,1018.7
2017-08-13T06:02:25.041Z,1018.8
2017-08-13T06:02:55.433Z,1018.8
2017-08-13T06:03:25.815Z,1018.8
2017-08-13T06:03:56.296Z,1018.8
2017-08-13T06:04:26.783Z,1018.8
2017-08-13T06:04:57.163Z,1018.8
2017-08-13T06:06:20.506Z,1018.8
2017-08-13T06:07:19.567Z,1018.9
2017-08-13T06:08:19.010Z,1018.8
2017-08-13T06:09:18.191Z,1018.9
2017-08-13T06:10:17.380Z,1018.9
2017-08-13T06:11:16.828Z,1018.9
2017-08-13T06:12:16.018Z,1018.8
2017-08-13T06:13:14.971Z,1018.8
2017-08-13T06:14:14.161Z,1018.9
2017-08-13T06:15:13.721Z,1018.9
2017-08-13T06:16:12.906Z,1018.9
2017-08-13T06:17:11.869Z,1018.9
2017-08-13T06:18:11.046Z,1018.9
2017-08-13T06:19:10.735Z,1018.9
2017-08-13T06:20:09.938Z,1018.9
2017-08-13T06:21:09.030Z,1018.9
2017-08-13T06:21:39.524Z,1018.9
2017-08-13T06:23:07.389Z,1019
2017-08-13T06:24:06.851Z,1019
2017-08-13T06:25:06.036Z,1019
2017-08-13T06:26:05.231Z,1019
2017-08-13T06:27:04.550Z,1019
2017-08-13T06:28:03.485Z,1019
2017-08-13T06:29:03.053Z,1019
2017-08-13T06:30:02.235Z,1019.2
2017-08-13T06:31:01.565Z,1019.2
2017-08-13T06:32:00.755Z,1019.2
2017-08-13T06:32:59.937Z,1019.2
2017-08-13T06:33:59.136Z,1019.2
2017-08-13T06:34:58.324Z,1019.3
2017-08-13T06:35:57.890Z,1019.3
2017-08-13T06:36:57.100Z,1019.3
2017-08-13T06:37:56.182Z,1019.3
2017-08-13T06:38:55.365Z,1019.3
2017-08-13T06:39:54.552Z,1019.3
2017-08-13T06:40:53.732Z,1019.4
2017-08-13T06:41:53.312Z,1019.4
2017-08-13T06:42:52.495Z,1019.4
2017-08-13T06:43:22.992Z,1019.4
2017-08-13T06:43:53.366Z,1019.4
2017-08-13T06:44:23.847Z,1019.4
2017-08-13T06:45:50.251Z,1019.4
2017-08-13T06:46:49.439Z,1019.4
2017-08-13T06:47:48.624Z,1019.5
2017-08-13T06:48:47.698Z,1019.5
2017-08-13T06:49:47.281Z,1019.5
2017-08-13T06:50:46.347Z,1019.5
2017-08-13T06:51:45.551Z,1019.5
2017-08-13T06:52:44.600Z,1019.5
2017-08-13T06:53:44.295Z,1019.5
2017-08-13T06:54:43.477Z,1019.5
2017-08-13T06:55:42.645Z,1019.5
2017-08-13T06:56:13.138Z,1019.5
2017-08-13T06:56:43.401Z,1019.5
2017-08-13T06:57:41.077Z,1019.5
2017-08-13T06:58:40.250Z,1019.5
2017-08-13T06:59:39.421Z,1019.5
2017-08-13T07:00:38.893Z,1019.5
2017-08-13T07:01:37.847Z,1019.5
2017-08-13T07:02:37.427Z,1019.5
2017-08-13T07:03:36.608Z,1019.5
2017-08-13T07:04:35.688Z,1019.5
2017-08-13T07:05:35.149Z,1019.6
2017-08-13T07:06:34.114Z,1019.5
2017-08-13T07:07:33.690Z,1019.6
2017-08-13T07:08:32.750Z,1019.5
2017-08-13T07:09:31.916Z,1019.5
2017-08-13T07:10:31.368Z,1019.5
2017-08-13T07:11:30.560Z,1019.5
2017-08-13T07:12:29.615Z,1019.5
2017-08-13T07:13:28.809Z,1019.5
2017-08-13T07:14:28.377Z,1019.5
2017-08-13T07:14:58.865Z,1019.5
2017-08-13T07:15:29.366Z,1019.6
2017-08-13T07:15:59.866Z,1019.6
2017-08-13T07:17:25.711Z,1019.6
2017-08-13T07:18:25.293Z,1019.6
2017-08-13T07:19:24.237Z,1019.6
2017-08-13T07:20:23.441Z,1019.6
2017-08-13T07:21:23.129Z,1019.6
2017-08-13T07:22:22.193Z,1019.5
2017-08-13T07:23:21.656Z,1019.6
2017-08-13T07:24:20.725Z,1019.6
2017-08-13T07:25:19.809Z,1019.6
2017-08-13T07:26:18.984Z,1019.5
2017-08-13T07:27:18.573Z,1019.6
2017-08-13T07:28:17.750Z,1019.6
2017-08-13T07:29:16.943Z,1019.6
2017-08-13T07:30:15.999Z,1019.6
2017-08-13T07:30:46.388Z,1019.6
2017-08-13T07:31:16.764Z,1019.6
2017-08-13T07:32:14.435Z,1019.6
2017-08-13T07:33:14.130Z,1019.6
2017-08-13T07:34:13.194Z,1019.6
2017-08-13T07:35:12.285Z,1019.7
2017-08-13T07:36:11.859Z,1019.7
2017-08-13T07:37:11.046Z,1019.7
2017-08-13T07:38:10.241Z,1019.7
2017-08-13T07:39:09.307Z,1019.7
2017-08-13T07:40:08.881Z,1019.7
2017-08-13T07:42:06.963Z,1019.7
2017-08-13T07:43:06.663Z,1019.8
2017-08-13T07:44:05.750Z,1019.7
2017-08-13T07:45:04.940Z,1019.7
2017-08-13T07:46:04.162Z,1019.8
2017-08-13T07:47:03.616Z,1019.8
2017-08-13T07:48:02.690Z,1019.8
2017-08-13T07:49:01.939Z,1019.8
2017-08-13T07:50:01.116Z,1019.8
2017-08-13T07:51:00.692Z,1019.8
2017-08-13T07:51:31.192Z,1019.8
2017-08-13T07:52:59.072Z,1019.8
2017-08-13T07:53:58.263Z,1019.9
2017-08-13T07:54:57.448Z,1019.9
2017-08-13T07:55:56.624Z,1019.9
2017-08-13T07:56:55.802Z,1019.9
2017-08-13T07:57:55.365Z,1019.9
2017-08-13T07:58:54.574Z,1019.9
2017-08-13T07:59:53.518Z,1019.9
2017-08-13T08:00:53.213Z,1019.9
2017-08-13T08:01:52.274Z,1019.9
2017-08-13T08:02:51.342Z,1019.9
2017-08-13T08:03:51.031Z,1019.9
2017-08-13T08:04:50.228Z,1019.9
2017-08-13T08:05:49.405Z,1019.9
2017-08-13T08:06:48.585Z,1019.9
2017-08-13T08:07:47.779Z,1019.9
2017-08-13T08:08:46.956Z,1019.9
2017-08-13T08:09:46.185Z,1019.9
2017-08-13T08:10:16.451Z,1019.9
2017-08-13T08:10:46.831Z,1019.9
2017-08-13T08:11:17.224Z,1019.9
2017-08-13T08:11:47.599Z,1019.9
2017-08-13T08:12:18.088Z,1019.9
2017-08-13T08:12:48.491Z,1019.9
2017-08-13T08:13:43.537Z,1019.9
2017-08-13T08:14:42.617Z,1019.9
2017-08-13T08:15:41.810Z,1019.9
2017-08-13T08:16:40.989Z,1019.9
2017-08-13T08:17:40.560Z,1019.9
2017-08-13T08:18:39.518Z,1019.9
2017-08-13T08:19:38.974Z,1019.9
2017-08-13T08:20:38.042Z,1019.9
2017-08-13T08:21:37.227Z,1019.9
2017-08-13T08:22:07.737Z,1019.9
2017-08-13T08:22:38.222Z,1019.9
2017-08-13T08:23:08.717Z,1019.9
2017-08-13T08:23:39.122Z,1020
2017-08-13T08:24:09.614Z,1020
2017-08-13T08:25:34.613Z,1020
2017-08-13T08:26:33.944Z,1020
2017-08-13T08:27:33.125Z,1020
2017-08-13T08:28:32.322Z,1020.1
2017-08-13T08:29:31.504Z,1020.1
2017-08-13T08:30:30.687Z,1020.1
2017-08-13T08:31:30.052Z,1020.1
2017-08-13T08:32:29.118Z,1020.1
2017-08-13T08:33:28.568Z,1020.1
2017-08-13T08:34:28.131Z,1020
2017-08-13T08:35:27.311Z,1020.1
2017-08-13T08:36:26.512Z,1020.1
2017-08-13T08:37:25.691Z,1020
2017-08-13T08:38:25.132Z,1020
2017-08-13T08:39:24.080Z,1020
2017-08-13T08:40:23.419Z,1020
2017-08-13T08:41:22.991Z,1020
2017-08-13T08:42:22.223Z,1020
2017-08-13T08:43:21.288Z,1020
2017-08-13T08:44:20.345Z,1020.1
2017-08-13T08:45:19.790Z,1020.1
2017-08-13T08:46:18.868Z,1020.1
2017-08-13T08:47:18.557Z,1020.1
2017-08-13T08:48:17.513Z,1020.1
2017-08-13T08:49:17.078Z,1020.1
2017-08-13T08:50:16.275Z,1020.1
2017-08-13T08:51:15.336Z,1020.1
2017-08-13T08:52:14.534Z,1020.1
2017-08-13T08:53:14.105Z,1020.1
2017-08-13T08:54:13.184Z,1020.2
2017-08-13T08:55:12.276Z,1020.1
2017-08-13T08:56:11.963Z,1020.1
2017-08-13T08:57:11.047Z,1020.1
2017-08-13T08:58:10.234Z,1020.1
2017-08-13T08:59:09.683Z,1020.2
2017-08-13T09:00:08.862Z,1020.2
2017-08-13T09:01:08.058Z,1020.2
2017-08-13T09:02:07.640Z,1020.2
2017-08-13T09:02:38.128Z,1020.2
2017-08-13T09:03:08.678Z,1020.2
2017-08-13T09:03:39.175Z,1020.2
2017-08-13T09:04:09.550Z,1020.3
2017-08-13T09:04:40.037Z,1020.3
2017-08-13T09:06:04.433Z,1020.3
2017-08-13T09:07:03.515Z,1020.3
2017-08-13T09:08:03.089Z,1020.2
2017-08-13T09:09:02.279Z,1020.3
2017-08-13T09:10:01.344Z,1020.3
2017-08-13T09:11:00.689Z,1020.3
2017-08-13T09:12:00.282Z,1020.3
2017-08-13T09:12:59.343Z,1020.3
2017-08-13T09:13:58.528Z,1020.3
2017-08-13T09:14:57.731Z,1020.3
2017-08-13T09:15:57.301Z,1020.3
2017-08-13T09:16:56.475Z,1020.3
2017-08-13T09:17:55.673Z,1020.4
2017-08-13T09:18:54.855Z,1020.3
2017-08-13T09:19:54.026Z,1020.3
2017-08-13T09:20:53.596Z,1020.3
2017-08-13T09:21:52.672Z,1020.2
2017-08-13T09:22:51.844Z,1020.3
2017-08-13T09:23:51.526Z,1020.3
2017-08-13T09:24:50.375Z,1020.3
2017-08-13T09:25:50.057Z,1020.2
2017-08-13T09:26:49.242Z,1020.2
2017-08-13T09:27:48.416Z,1020.1
2017-08-13T09:28:47.922Z,1020.1
2017-08-13T09:29:47.095Z,1020.1
2017-08-13T09:30:46.161Z,1020.1
2017-08-13T09:31:45.737Z,1020.1
2017-08-13T09:32:44.922Z,1020.1
2017-08-13T09:33:43.986Z,1020.1
2017-08-13T09:34:43.167Z,1020.1
2017-08-13T09:35:42.765Z,1020.1
2017-08-13T09:36:41.826Z,1020.1
2017-08-13T09:37:41.397Z,1020.1
2017-08-13T09:38:40.581Z,1020.1
2017-08-13T09:40:39.156Z,1020.1
2017-08-13T09:41:38.111Z,1020.1
2017-08-13T09:42:37.796Z,1020.1
2017-08-13T09:43:36.751Z,1020.1
2017-08-13T09:44:35.932Z,1020.2
2017-08-13T09:45:35.637Z,1020.1
2017-08-13T09:46:34.846Z,1020.2
2017-08-13T09:47:33.811Z,1020.2
2017-08-13T09:48:32.987Z,1020.2
2017-08-13T09:49:32.679Z,1020.2
2017-08-13T09:50:31.740Z,1020.2
2017-08-13T09:51:30.924Z,1020.3
2017-08-13T09:52:30.375Z,1020.3
2017-08-13T09:53:29.447Z,1020.3
2017-08-13T09:54:28.894Z,1020.3
2017-08-13T09:55:27.954Z,1020.3
2017-08-13T09:56:27.525Z,1020.3
2017-08-13T09:59:25.513Z,1020.3
2017-08-13T10:01:23.975Z,1020.4
2017-08-13T10:02:23.163Z,1020.4
2017-08-13T10:03:22.348Z,1020.4
2017-08-13T10:04:21.834Z,1020.4
2017-08-13T10:05:21.006Z,1020.3
2017-08-13T10:06:20.200Z,1020.3
2017-08-13T10:07:19.418Z,1020.3
2017-08-13T10:08:18.989Z,1020.3
2017-08-13T10:09:18.055Z,1020.3
2017-08-13T10:09:48.416Z,1020.3
2017-08-13T10:10:18.903Z,1020.3
2017-08-13T10:10:49.163Z,1020.3
2017-08-13T10:11:19.642Z,1020.3
2017-08-13T10:11:49.905Z,1020.3
2017-08-13T10:13:15.267Z,1020.2
2017-08-13T10:14:14.332Z,1020.2
2017-08-13T10:15:13.512Z,1020.2
2017-08-13T10:16:13.231Z,1020.2
2017-08-13T10:17:12.239Z,1020.2
2017-08-13T10:18:11.428Z,1020.2
2017-08-13T10:20:09.991Z,1020.3
2017-08-13T10:21:09.179Z,1020.3
2017-08-13T10:22:08.703Z,1020.3
2017-08-13T10:23:08.146Z,1020.3
2017-08-13T10:24:07.086Z,1020.3
2017-08-13T10:25:06.258Z,1020.3
2017-08-13T10:26:05.829Z,1020.3
2017-08-13T10:27:04.896Z,1020.2
2017-08-13T10:28:04.348Z,1020.3
2017-08-13T10:29:03.789Z,1020.3
2017-08-13T10:30:02.733Z,1020.3
2017-08-13T10:31:01.950Z,1020.3
2017-08-13T10:32:01.412Z,1020.3
2017-08-13T10:33:00.598Z,1020.3
2017-08-13T10:33:59.776Z,1020.3
2017-08-13T10:34:59.354Z,1020.3
2017-08-13T10:35:58.408Z,1020.3
2017-08-13T10:36:57.593Z,1020.3
2017-08-13T10:37:57.269Z,1020.3
2017-08-13T10:38:56.461Z,1020.3
2017-08-13T10:39:55.643Z,1020.3
2017-08-13T10:40:54.816Z,1020.3
2017-08-13T10:41:54.082Z,1020.4
2017-08-13T10:42:53.258Z,1020.4
2017-08-13T10:43:52.949Z,1020.4
2017-08-13T10:44:52.149Z,1020.4
2017-08-13T10:45:51.333Z,1020.5
2017-08-13T10:46:50.511Z,1020.4
2017-08-13T10:47:49.850Z,1020.4
2017-08-13T10:48:49.034Z,1020.5
2017-08-13T10:49:48.213Z,1020.5
2017-08-13T10:50:18.588Z,1020.5
2017-08-13T10:50:48.956Z,1020.5
2017-08-13T10:51:19.444Z,1020.5
2017-08-13T10:52:46.303Z,1020.5
2017-08-13T10:53:45.481Z,1020.5
2017-08-13T10:54:44.660Z,1020.6
2017-08-13T10:55:44.120Z,1020.6
2017-08-13T10:56:43.292Z,1020.6
2017-08-13T10:57:42.858Z,1020.6
2017-08-13T10:58:42.049Z,1020.6
2017-08-13T10:59:40.999Z,1020.6
2017-08-13T11:00:40.686Z,1020.6
2017-08-13T11:01:39.859Z,1020.6
2017-08-13T11:02:39.050Z,1020.6
2017-08-13T11:03:09.429Z,1020.6
2017-08-13T11:03:39.917Z,1020.7
2017-08-13T11:04:10.273Z,1020.7
2017-08-13T11:04:40.648Z,1020.6
2017-08-13T11:05:36.691Z,1020.7
2017-08-13T11:06:35.883Z,1020.7
2017-08-13T11:07:35.339Z,1020.7
2017-08-13T11:08:34.514Z,1020.7
2017-08-13T11:09:33.713Z,1020.7
2017-08-13T11:10:33.404Z,1020.7
2017-08-13T11:11:32.470Z,1020.7
2017-08-13T11:12:31.640Z,1020.7
2017-08-13T11:13:31.218Z,1020.7
2017-08-13T11:14:30.162Z,1020.6
2017-08-13T11:15:29.863Z,1020.7
2017-08-13T11:16:28.936Z,1020.7
2017-08-13T11:17:27.997Z,1020.7
2017-08-13T11:18:27.569Z,1020.6
2017-08-13T11:19:26.639Z,1020.6
2017-08-13T11:20:25.821Z,1020.6
2017-08-13T11:21:25.505Z,1020.6
2017-08-13T11:22:24.570Z,1020.5
2017-08-13T11:22:55.099Z,1020.5
2017-08-13T11:23:25.491Z,1020.5
2017-08-13T11:24:23.431Z,1020.6
2017-08-13T11:25:22.613Z,1020.6
2017-08-13T11:26:21.806Z,1020.6
2017-08-13T11:27:20.890Z,1020.6
2017-08-13T11:28:20.080Z,1020.5
2017-08-13T11:29:19.543Z,1020.6
2017-08-13T11:30:19.115Z,1020.5
2017-08-13T11:31:18.179Z,1020.6
2017-08-13T11:32:17.360Z,1020.6
2017-08-13T11:33:16.904Z,1020.6
2017-08-13T11:34:15.840Z,1020.6
2017-08-13T11:35:15.206Z,1020.6
2017-08-13T11:37:14.040Z,1020.6
2017-08-13T11:38:13.222Z,1020.6
2017-08-13T11:39:12.301Z,1020.6
2017-08-13T11:40:11.761Z,1020.6
2017-08-13T11:41:10.950Z,1020.6
2017-08-13T11:42:10.124Z,1020.6
2017-08-13T11:43:09.836Z,1020.5
2017-08-13T11:45:08.426Z,1020.5
2017-08-13T11:46:07.617Z,1020.6
2017-08-13T11:47:06.801Z,1020.6
2017-08-13T11:48:05.985Z,1020.6
2017-08-13T11:49:05.432Z,1020.6
2017-08-13T11:50:04.507Z,1020.5
2017-08-13T11:51:04.074Z,1020.5
2017-08-13T11:52:03.284Z,1020.6